This is the latest recevied weather packets stored in our database for station/object VK2BNC-13. If no packets are shown the sender has not sent any weather packets the latest 10 day(s).
| Time | Temp. | Humidity | Pressure | Rain* | Wind** | Luminosity | Snow |
|---|---|---|---|---|---|---|---|
| 1777453818 | 17.78° C | 85% | - | 0 mm | - | - | - |
| 1777452916 | 18.33° C | 83% | - | 0 mm | - | - | - |
| 1777452017 | 18.89° C | 81% | - | 0 mm | - | - | - |
| 1777451114 | 19.44° C | 80% | - | 0 mm | - | - | - |
| 1777450217 | 19.44° C | 79% | - | 0 mm | - | - | - |
| 1777449314 | 20° C | 77% | - | 0 mm | - | - | - |
| 1777448414 | 20.56° C | 74% | - | 0 mm | - | - | - |
| 1777447514 | 21.11° C | 72% | - | 0 mm | - | - | - |
| 1777446614 | 21.67° C | 69% | - | 0 mm | - | - | - |
| 1777445713 | 22.78° C | 66% | - | 0 mm | - | - | - |
| 1777444814 | 23.33° C | 63% | - | 0 mm | - | - | - |
| 1777443913 | 23.33° C | 60% | - | 0 mm | - | - | - |
| 1777443008 | 23.89° C | 59% | - | 0 mm | - | - | - |
| 1777442109 | 24.44° C | 58% | - | 0 mm | - | - | - |
| 1777441208 | 24.44° C | 56% | - | 0 mm | - | - | - |
| 1777440308 | 25° C | 58% | - | 0 mm | - | - | - |
| 1777439408 | 25° C | 55% | - | 0 mm | - | - | - |
| 1777438508 | 25.56° C | 55% | - | 0 mm | - | - | - |
| 1777437608 | 25.56° C | 53% | - | 0 mm | - | - | - |
| 1777436707 | 25.56° C | 54% | - | 0 mm | - | - | - |
| 1777435805 | 25.56° C | 55% | - | 0 mm | - | - | - |
| 1777434906 | 25° C | 57% | - | 0 mm | - | - | - |
| 1777434003 | 25° C | 58% | - | 0 mm | - | - | - |
| 1777433104 | 24.44° C | 59% | - | 0 mm | - | - | - |
| 1777432204 | 24.44° C | 60% | - | 0 mm | - | - | - |
* Rain latest hour (hover to see other rain measurements)
** Current wind speed in m/s (hover to see current wind gust speed)